createdAt,value
2023-04-03T00:00:31.457Z,32.28
2023-04-03T00:01:34.270Z,32.38
2023-04-03T00:02:36.150Z,32.36
2023-04-03T00:03:38.147Z,32.47
2023-04-03T00:04:40.011Z,32.21
2023-04-03T00:05:42.262Z,32.29
2023-04-03T00:06:44.126Z,32.40
2023-04-03T00:07:46.232Z,32.25
2023-04-03T00:08:48.641Z,32.31
2023-04-03T00:09:51.003Z,32.15
2023-04-03T00:10:52.930Z,32.17
2023-04-03T00:11:54.720Z,32.56
2023-04-03T00:12:56.644Z,32.21
2023-04-03T00:13:58.386Z,32.09
2023-04-03T00:15:00.212Z,32.33
2023-04-03T00:16:04.291Z,32.29
2023-04-03T00:17:06.444Z,32.14
2023-04-03T00:18:09.080Z,32.31
2023-04-03T00:19:12.952Z,32.11
2023-04-03T00:20:14.712Z,32.31
2023-04-03T00:21:16.595Z,32.27
2023-04-03T00:22:18.346Z,32.15
2023-04-03T00:23:20.252Z,32.20
2023-04-03T00:24:22.077Z,32.17
2023-04-03T00:25:23.983Z,32.30
2023-04-03T00:26:25.805Z,32.19
2023-04-03T00:27:27.632Z,32.31
2023-04-03T00:28:29.459Z,32.13
2023-04-03T00:29:31.263Z,32.08
2023-04-03T00:30:33.817Z,32.21
2023-04-03T00:31:35.772Z,32.02
2023-04-03T00:32:37.787Z,32.37
2023-04-03T00:33:39.695Z,32.12
2023-04-03T00:34:41.496Z,32.34
2023-04-03T00:35:43.621Z,32.00
2023-04-03T00:36:45.849Z,32.08
2023-04-03T00:37:48.606Z,32.10
2023-04-03T00:38:50.404Z,32.24
2023-04-03T00:39:52.225Z,32.12
2023-04-03T00:40:54.066Z,32.18
2023-04-03T00:41:56.293Z,32.05
2023-04-03T00:43:00.397Z,32.33
2023-04-03T00:44:02.253Z,32.36
2023-04-03T00:45:03.987Z,32.31
2023-04-03T00:46:06.227Z,32.38
2023-04-03T00:47:16.457Z,32.12
2023-04-03T00:48:28.674Z,32.28
2023-04-03T00:49:31.252Z,32.21
2023-04-03T00:50:39.718Z,32.29
2023-04-03T00:51:41.724Z,32.29
2023-04-03T00:52:43.926Z,32.31
2023-04-03T00:53:56.389Z,31.99
2023-04-03T00:55:07.716Z,32.13
2023-04-03T00:56:15.615Z,32.24
2023-04-03T00:57:18.773Z,32.21
2023-04-03T00:58:27.349Z,32.09
2023-04-03T00:59:37.276Z,32.01
2023-04-03T01:00:46.052Z,32.10
2023-04-03T01:01:48.942Z,32.12
2023-04-03T01:02:52.918Z,32.32
2023-04-03T01:03:55.676Z,32.35
2023-04-03T01:04:57.514Z,32.03
2023-04-03T01:05:59.938Z,32.02
2023-04-03T01:07:30.380Z,31.96
2023-04-03T01:08:32.673Z,32.27
2023-04-03T01:09:35.826Z,32.14
2023-04-03T01:10:37.840Z,32.33
2023-04-03T01:11:39.937Z,32.15
2023-04-03T01:12:46.906Z,32.02
2023-04-03T01:13:50.106Z,32.07
2023-04-03T01:15:00.025Z,32.13
2023-04-03T01:16:07.039Z,32.06
2023-04-03T01:17:47.278Z,32.02
2023-04-03T01:18:49.567Z,32.22
2023-04-03T01:20:15.362Z,31.82
2023-04-03T01:21:38.539Z,32.13
2023-04-03T01:23:14.452Z,31.98
2023-04-03T01:24:39.920Z,32.03
2023-04-03T01:25:50.347Z,31.89
2023-04-03T01:26:52.238Z,32.21
2023-04-03T01:27:54.798Z,32.12
2023-04-03T01:28:56.685Z,32.07
2023-04-03T01:29:59.360Z,32.37
2023-04-03T01:31:31.865Z,31.96
2023-04-03T01:32:33.819Z,32.10
2023-04-03T01:33:37.067Z,31.97
2023-04-03T01:34:38.960Z,32.12
2023-04-03T01:35:40.904Z,32.23
2023-04-03T01:36:42.872Z,31.99
2023-04-03T01:37:44.673Z,32.21
2023-04-03T01:38:46.595Z,32.07
2023-04-03T01:39:48.528Z,32.35
2023-04-03T01:40:50.355Z,32.10
2023-04-03T01:41:52.660Z,32.16
2023-04-03T01:42:54.621Z,31.85
2023-04-03T01:43:56.451Z,32.30
2023-04-03T01:44:58.370Z,32.24
2023-04-03T01:46:00.317Z,32.08
2023-04-03T01:47:02.205Z,32.24
2023-04-03T01:48:05.473Z,32.44
2023-04-03T01:49:07.237Z,31.98
2023-04-03T01:50:09.611Z,32.26
2023-04-03T01:51:11.885Z,32.28
2023-04-03T01:52:14.145Z,31.85
2023-04-03T01:53:16.112Z,31.98
2023-04-03T01:54:17.968Z,32.22
2023-04-03T01:55:19.802Z,32.16
2023-04-03T01:56:22.066Z,32.20
2023-04-03T01:57:23.980Z,32.04
2023-04-03T01:58:25.966Z,32.26
2023-04-03T01:59:27.793Z,32.10
2023-04-03T02:00:29.678Z,32.29
2023-04-03T02:01:31.637Z,32.23
2023-04-03T02:02:33.586Z,31.87
2023-04-03T02:03:35.679Z,31.85
2023-04-03T02:04:37.432Z,32.03
2023-04-03T02:05:39.521Z,31.92
2023-04-03T02:06:41.418Z,32.07
2023-04-03T02:07:43.274Z,32.08
2023-04-03T02:08:45.295Z,31.91
2023-04-03T02:09:47.164Z,32.14
2023-04-03T02:10:50.875Z,31.85
2023-04-03T02:11:53.106Z,31.88
2023-04-03T02:12:55.002Z,32.20
2023-04-03T02:13:56.956Z,32.19
2023-04-03T02:14:58.774Z,32.01
2023-04-03T02:16:06.534Z,32.25
2023-04-03T02:17:09.608Z,32.23
2023-04-03T02:18:11.902Z,32.27
2023-04-03T02:19:13.841Z,32.10
2023-04-03T02:20:15.886Z,32.05
2023-04-03T02:21:17.771Z,31.90
2023-04-03T02:22:20.169Z,32.09
2023-04-03T02:23:21.985Z,31.79
2023-04-03T02:24:23.891Z,32.17
2023-04-03T02:25:25.816Z,31.76
2023-04-03T02:26:27.792Z,31.94
2023-04-03T02:27:29.618Z,32.00
2023-04-03T02:28:31.401Z,31.81
2023-04-03T02:29:33.366Z,31.80
2023-04-03T02:30:35.721Z,31.81
2023-04-03T02:31:37.897Z,31.72
2023-04-03T02:32:39.716Z,32.20
2023-04-03T02:33:42.074Z,31.93
2023-04-03T02:34:43.932Z,31.92
2023-04-03T02:35:53.911Z,31.91
2023-04-03T02:36:55.808Z,31.91
2023-04-03T02:37:57.756Z,32.01
2023-04-03T02:38:59.559Z,32.14
2023-04-03T02:40:01.864Z,31.76
2023-04-03T02:41:10.032Z,31.78
2023-04-03T02:42:11.870Z,31.91
2023-04-03T02:43:13.747Z,31.74
2023-04-03T02:44:15.591Z,32.01
2023-04-03T02:45:17.493Z,32.16
2023-04-03T02:46:19.346Z,31.95
2023-04-03T02:47:21.146Z,31.76
2023-04-03T02:48:23.968Z,31.99
2023-04-03T02:49:25.958Z,31.78
2023-04-03T02:50:27.723Z,31.87
2023-04-03T02:51:29.629Z,31.85
2023-04-03T02:52:31.384Z,32.06
2023-04-03T02:53:33.544Z,31.78
2023-04-03T02:54:35.392Z,32.09
2023-04-03T02:55:37.253Z,31.82
2023-04-03T02:56:39.263Z,31.88
2023-04-03T02:57:41.337Z,31.98
2023-04-03T02:58:43.199Z,32.01
2023-04-03T02:59:45.330Z,31.76
2023-04-03T03:00:47.195Z,32.05
2023-04-03T03:01:49.017Z,31.93
2023-04-03T03:02:50.933Z,32.23
2023-04-03T03:03:52.760Z,32.14
2023-04-03T03:04:54.655Z,31.82
2023-04-03T03:06:08.899Z,31.69
2023-04-03T03:07:11.017Z,31.94
2023-04-03T03:08:12.841Z,31.71
2023-04-03T03:09:14.948Z,31.85
2023-04-03T03:10:16.916Z,31.89
2023-04-03T03:11:18.817Z,32.05
2023-04-03T03:12:22.587Z,31.90
2023-04-03T03:13:24.671Z,31.92
2023-04-03T03:14:26.619Z,32.02
2023-04-03T03:15:28.450Z,31.95
2023-04-03T03:16:30.449Z,32.03
2023-04-03T03:17:32.386Z,32.07
2023-04-03T03:18:34.841Z,32.11
2023-04-03T03:19:36.693Z,32.12
2023-04-03T03:20:38.720Z,31.89
2023-04-03T03:21:40.670Z,31.96
2023-04-03T03:22:42.557Z,31.99
2023-04-03T03:23:44.411Z,31.96
2023-04-03T03:24:46.155Z,31.83
2023-04-03T03:25:48.024Z,31.96
2023-04-03T03:26:49.850Z,31.73
2023-04-03T03:27:51.672Z,31.94
2023-04-03T03:28:53.507Z,32.01
2023-04-03T03:29:55.518Z,31.71
2023-04-03T03:30:58.889Z,32.14
2023-04-03T03:32:00.820Z,31.89
2023-04-03T03:33:02.961Z,31.69
2023-04-03T03:34:04.848Z,31.90
2023-04-03T03:35:07.063Z,32.00
2023-04-03T03:36:09.007Z,31.80
2023-04-03T03:37:10.938Z,31.72
2023-04-03T03:38:13.130Z,32.08
2023-04-03T03:39:15.059Z,31.90
2023-04-03T03:40:17.192Z,31.94
2023-04-03T03:41:19.937Z,31.70
2023-04-03T03:42:21.792Z,31.83
2023-04-03T03:43:23.677Z,31.73
2023-04-03T03:44:25.775Z,31.68
2023-04-03T03:45:28.113Z,31.87
2023-04-03T03:46:30.198Z,31.74
2023-04-03T03:47:32.136Z,32.03
2023-04-03T03:48:34.323Z,31.88
2023-04-03T03:49:36.224Z,31.95
2023-04-03T03:50:38.287Z,31.85
2023-04-03T03:51:41.395Z,31.68
2023-04-03T03:52:43.272Z,31.76
2023-04-03T03:53:45.173Z,31.70
2023-04-03T03:54:46.992Z,31.69
2023-04-03T03:55:48.888Z,31.83
2023-04-03T03:56:50.870Z,31.84
2023-04-03T03:57:52.816Z,31.70
2023-04-03T03:58:54.669Z,31.78
2023-04-03T03:59:56.497Z,31.89
2023-04-03T04:01:01.867Z,32.02
2023-04-03T04:02:03.657Z,31.91
2023-04-03T04:03:05.853Z,31.92
2023-04-03T04:04:07.829Z,31.69
2023-04-03T04:05:10.284Z,31.93
2023-04-03T04:06:12.137Z,32.17
2023-04-03T04:07:14.090Z,31.96
2023-04-03T04:08:16.013Z,31.87
2023-04-03T04:09:17.836Z,31.81
2023-04-03T04:10:19.719Z,31.82
2023-04-03T04:11:22.947Z,31.84
2023-04-03T04:12:24.830Z,31.83
2023-04-03T04:13:26.574Z,31.98
2023-04-03T04:14:28.375Z,31.85
2023-04-03T04:15:30.314Z,31.85
2023-04-03T04:16:32.300Z,31.57
2023-04-03T04:17:35.632Z,32.02
2023-04-03T04:18:37.507Z,31.60
2023-04-03T04:19:39.272Z,31.55
2023-04-03T04:20:41.193Z,31.96
2023-04-03T04:21:42.994Z,31.84
2023-04-03T04:22:44.778Z,31.57
2023-04-03T04:23:46.641Z,31.78
2023-04-03T04:24:48.506Z,31.65
2023-04-03T04:25:50.957Z,31.85
2023-04-03T04:26:52.867Z,31.86
2023-04-03T04:27:54.786Z,31.64
2023-04-03T04:28:56.654Z,32.00
2023-04-03T04:29:59.342Z,31.81
2023-04-03T04:31:01.371Z,31.91
2023-04-03T04:32:04.892Z,31.78
2023-04-03T04:33:07.739Z,32.03
2023-04-03T04:34:09.704Z,31.82
2023-04-03T04:35:11.607Z,31.57
2023-04-03T04:36:13.633Z,32.00
2023-04-03T04:37:15.441Z,31.63
2023-04-03T04:38:17.349Z,32.04
2023-04-03T04:39:19.154Z,31.83
2023-04-03T04:40:21.635Z,31.97
2023-04-03T04:41:23.980Z,32.07
2023-04-03T04:42:26.072Z,31.95
2023-04-03T04:43:27.993Z,31.96
2023-04-03T04:44:29.824Z,31.82
2023-04-03T04:45:31.761Z,31.67
2023-04-03T04:46:33.660Z,31.93
2023-04-03T04:47:35.461Z,31.90
2023-04-03T04:48:37.760Z,31.59
2023-04-03T04:49:39.556Z,31.88
2023-04-03T04:50:41.298Z,31.82
2023-04-03T04:51:51.702Z,31.73
2023-04-03T04:52:54.233Z,31.95
2023-04-03T04:53:56.216Z,31.99
2023-04-03T04:54:58.203Z,31.73
2023-04-03T04:56:00.288Z,31.91
2023-04-03T04:57:02.207Z,31.87
2023-04-03T04:58:04.078Z,31.89
2023-04-03T04:59:05.908Z,31.80
2023-04-03T05:00:08.538Z,31.92
2023-04-03T05:01:12.188Z,32.08
2023-04-03T05:02:14.070Z,31.96
2023-04-03T05:03:16.041Z,31.89
2023-04-03T05:04:18.322Z,32.00
2023-04-03T05:05:20.210Z,31.79
2023-04-03T05:06:22.225Z,31.73
2023-04-03T05:07:24.124Z,31.63
2023-04-03T05:08:26.678Z,31.80
2023-04-03T05:09:28.487Z,31.63
2023-04-03T05:10:31.262Z,31.55
2023-04-03T05:11:33.368Z,31.88
2023-04-03T05:12:35.637Z,31.63
2023-04-03T05:13:37.466Z,31.45
2023-04-03T05:14:39.316Z,31.46
2023-04-03T05:15:41.626Z,31.73
2023-04-03T05:16:43.497Z,31.51
2023-04-03T05:17:45.591Z,31.51
2023-04-03T05:18:47.471Z,31.77
2023-04-03T05:19:49.559Z,31.52
2023-04-03T05:20:51.667Z,31.53
2023-04-03T05:21:53.581Z,31.25
2023-04-03T05:22:55.653Z,31.41
2023-04-03T05:23:57.488Z,31.32
2023-04-03T05:24:59.304Z,31.54
2023-04-03T05:26:01.228Z,31.38
2023-04-03T05:27:03.370Z,31.13
2023-04-03T05:28:05.616Z,31.29
2023-04-03T05:29:07.844Z,31.55
2023-04-03T05:30:10.952Z,31.69
2023-04-03T05:31:13.904Z,31.41
2023-04-03T05:32:16.006Z,31.17
2023-04-03T05:33:17.819Z,31.58
2023-04-03T05:34:19.786Z,31.73
2023-04-03T05:35:21.704Z,31.51
2023-04-03T05:36:23.936Z,31.70
2023-04-03T05:37:25.913Z,31.91
2023-04-03T05:38:27.802Z,31.62
2023-04-03T05:39:29.962Z,31.78
2023-04-03T05:40:31.889Z,32.07
2023-04-03T05:41:33.759Z,32.02
2023-04-03T05:42:35.735Z,31.92
2023-04-03T05:43:39.912Z,31.83
2023-04-03T05:44:41.922Z,31.67
2023-04-03T05:45:46.720Z,31.79
2023-04-03T05:46:48.922Z,32.00
2023-04-03T05:47:50.991Z,31.67
2023-04-03T05:48:52.930Z,31.86
2023-04-03T05:49:54.775Z,31.73
2023-04-03T05:50:57.238Z,31.63
2023-04-03T05:51:59.195Z,31.51
2023-04-03T05:53:04.148Z,31.83
2023-04-03T05:54:31.165Z,31.45
2023-04-03T05:55:33.418Z,31.72
2023-04-03T05:56:35.353Z,31.58
2023-04-03T05:57:37.382Z,31.67
2023-04-03T05:58:39.541Z,31.84
2023-04-03T05:59:41.393Z,31.82
2023-04-03T06:00:43.416Z,31.67
2023-04-03T06:01:45.564Z,31.94
2023-04-03T06:02:47.600Z,31.70
2023-04-03T06:03:49.613Z,31.86
2023-04-03T06:04:52.299Z,31.89
2023-04-03T06:05:54.253Z,32.02
2023-04-03T06:06:58.965Z,31.79
2023-04-03T06:08:01.391Z,31.89
2023-04-03T06:09:03.862Z,31.95
2023-04-03T06:10:07.802Z,31.81
2023-04-03T06:11:09.757Z,31.60
2023-04-03T06:12:12.284Z,31.96
2023-04-03T06:13:14.682Z,31.63
2023-04-03T06:14:16.657Z,31.90
2023-04-03T06:15:18.652Z,31.64
2023-04-03T06:16:20.536Z,31.66
2023-04-03T06:17:23.421Z,31.77
2023-04-03T06:18:25.560Z,31.95
2023-04-03T06:19:27.412Z,31.70
2023-04-03T06:20:29.305Z,31.98
2023-04-03T06:21:31.542Z,31.98
2023-04-03T06:22:33.327Z,31.81
2023-04-03T06:23:35.770Z,31.63
2023-04-03T06:24:38.013Z,31.67
2023-04-03T06:25:39.831Z,31.95
2023-04-03T06:26:41.748Z,31.93
2023-04-03T06:27:43.553Z,32.06
2023-04-03T06:28:45.390Z,32.11
2023-04-03T06:29:47.257Z,31.80
2023-04-03T06:30:49.100Z,32.08
2023-04-03T06:31:52.203Z,31.93
2023-04-03T06:32:54.177Z,31.80
2023-04-03T06:33:57.193Z,32.07
2023-04-03T06:34:59.381Z,32.16
2023-04-03T06:36:04.335Z,32.13
2023-04-03T06:37:06.272Z,32.33
2023-04-03T06:38:10.582Z,32.23
2023-04-03T06:39:22.948Z,32.27
2023-04-03T06:40:27.136Z,32.13
2023-04-03T06:41:28.929Z,31.98
2023-04-03T06:42:30.758Z,31.85
2023-04-03T06:43:34.525Z,31.75
2023-04-03T06:44:36.738Z,32.21
2023-04-03T06:45:38.751Z,32.00
2023-04-03T06:46:41.255Z,32.01
2023-04-03T06:47:43.596Z,32.28
2023-04-03T06:48:46.386Z,32.25
2023-04-03T06:49:48.735Z,32.12
2023-04-03T06:50:50.644Z,31.99
2023-04-03T06:51:52.766Z,32.09
2023-04-03T06:52:54.551Z,31.89
2023-04-03T06:53:59.741Z,32.26
2023-04-03T06:55:01.655Z,32.20
2023-04-03T06:56:03.653Z,32.18
2023-04-03T06:57:05.580Z,32.07
2023-04-03T06:58:07.791Z,32.03
2023-04-03T06:59:14.624Z,32.16
2023-04-03T07:00:17.429Z,32.18
2023-04-03T07:01:20.189Z,31.93
2023-04-03T07:02:22.794Z,32.06
2023-04-03T07:03:24.764Z,32.08
2023-04-03T07:04:27.481Z,32.12
2023-04-03T07:05:29.351Z,31.92
2023-04-03T07:06:31.966Z,32.17
2023-04-03T07:07:35.108Z,32.25
2023-04-03T07:08:36.946Z,32.27
2023-04-03T07:09:38.833Z,32.36
2023-04-03T07:10:40.899Z,31.90
2023-04-03T07:11:42.881Z,32.05
2023-04-03T07:12:45.102Z,32.19
2023-04-03T07:13:46.981Z,31.89
2023-04-03T07:14:48.831Z,32.05
2023-04-03T07:15:51.201Z,31.77
2023-04-03T07:16:53.104Z,31.83
2023-04-03T07:17:55.446Z,31.72
2023-04-03T07:18:58.318Z,31.60
2023-04-03T07:20:00.515Z,31.70
2023-04-03T07:21:03.374Z,31.46
2023-04-03T07:22:05.226Z,31.36
2023-04-03T07:23:07.244Z,31.45
2023-04-03T07:24:11.502Z,31.64
2023-04-03T07:25:17.318Z,31.67
2023-04-03T07:26:19.247Z,31.47
2023-04-03T07:27:21.097Z,31.62
2023-04-03T07:28:24.503Z,31.40
2023-04-03T07:29:26.366Z,31.37
2023-04-03T07:30:28.473Z,31.29
2023-04-03T07:31:30.281Z,31.35
2023-04-03T07:32:32.139Z,31.38
2023-04-03T07:33:34.102Z,31.43
2023-04-03T07:34:36.200Z,31.31
2023-04-03T07:35:38.656Z,31.65
2023-04-03T07:36:40.656Z,31.31
2023-04-03T07:37:42.497Z,31.62
2023-04-03T07:38:44.540Z,31.35
2023-04-03T07:39:46.414Z,31.34
2023-04-03T07:40:53.718Z,31.67
2023-04-03T07:41:58.892Z,31.49
2023-04-03T07:43:00.873Z,31.30
2023-04-03T07:44:03.529Z,31.59
2023-04-03T07:45:05.899Z,31.43
2023-04-03T07:46:07.867Z,31.45
2023-04-03T07:47:10.274Z,31.41
2023-04-03T07:48:14.189Z,31.60
2023-04-03T07:49:16.650Z,31.58
2023-04-03T07:50:19.094Z,31.35
2023-04-03T07:51:21.371Z,31.79
2023-04-03T07:52:23.196Z,31.40
2023-04-03T07:53:24.967Z,31.83
2023-04-03T07:54:26.957Z,31.80
2023-04-03T07:55:28.973Z,31.58
2023-04-03T07:56:30.875Z,31.61
2023-04-03T07:57:32.741Z,31.76
2023-04-03T07:58:35.024Z,31.75
2023-04-03T07:59:36.950Z,31.54
2023-04-03T08:00:39.742Z,31.45
2023-04-03T08:01:41.683Z,31.46
2023-04-03T08:02:43.694Z,31.03
2023-04-03T08:03:45.843Z,30.82
2023-04-03T08:04:48.009Z,30.83
2023-04-03T08:05:51.271Z,30.64
2023-04-03T08:06:53.747Z,30.35
2023-04-03T08:07:55.781Z,30.08
2023-04-03T08:08:57.572Z,30.08
2023-04-03T08:09:59.485Z,29.92
2023-04-03T08:11:03.448Z,29.91
2023-04-03T08:12:05.869Z,29.67
2023-04-03T08:13:09.201Z,29.96
2023-04-03T08:14:16.442Z,29.69
2023-04-03T08:15:18.445Z,30.14
2023-04-03T08:16:24.446Z,30.23
2023-04-03T08:17:27.526Z,29.86
2023-04-03T08:18:29.506Z,29.97
2023-04-03T08:19:32.177Z,30.12
2023-04-03T08:20:34.070Z,29.93
2023-04-03T08:21:36.115Z,30.18
2023-04-03T08:22:37.961Z,30.27
2023-04-03T08:23:42.584Z,29.91
2023-04-03T08:24:56.192Z,30.12
2023-04-03T08:26:00.974Z,30.25
2023-04-03T08:27:02.863Z,30.29
2023-04-03T08:28:05.072Z,30.21
2023-04-03T08:29:06.846Z,30.19
2023-04-03T08:30:09.968Z,30.25
2023-04-03T08:31:16.360Z,30.42
2023-04-03T08:32:18.907Z,30.18
2023-04-03T08:33:20.804Z,30.17
2023-04-03T08:34:22.974Z,30.32
2023-04-03T08:35:24.804Z,30.42
2023-04-03T08:36:30.401Z,30.57
2023-04-03T08:37:32.902Z,30.38
2023-04-03T08:38:38.165Z,30.32
2023-04-03T08:39:40.045Z,30.50
2023-04-03T08:40:42.746Z,30.40
2023-04-03T08:41:48.666Z,30.55
2023-04-03T08:43:21.265Z,30.21
2023-04-03T08:44:47.171Z,30.26
2023-04-03T08:45:56.580Z,30.54
2023-04-03T08:47:38.481Z,30.29
2023-04-03T08:48:44.742Z,30.34
2023-04-03T08:49:54.087Z,30.31
2023-04-03T08:51:03.963Z,30.31
2023-04-03T08:52:15.994Z,30.50
2023-04-03T08:53:29.510Z,30.16
2023-04-03T08:54:41.005Z,30.30
2023-04-03T08:55:49.534Z,30.33
2023-04-03T08:56:51.949Z,30.35
2023-04-03T08:58:19.938Z,30.38
2023-04-03T08:59:30.899Z,30.13
2023-04-03T09:00:50.883Z,30.19
2023-04-03T09:01:54.921Z,30.50
2023-04-03T09:02:58.198Z,30.30
2023-04-03T09:04:03.501Z,30.37
2023-04-03T09:05:50.260Z,30.21
2023-04-03T09:07:03.010Z,30.12
2023-04-03T09:08:16.632Z,30.24
2023-04-03T09:09:36.966Z,30.20
2023-04-03T09:10:42.629Z,30.25
2023-04-03T09:11:50.251Z,30.30
2023-04-03T09:13:09.386Z,30.11
2023-04-03T09:14:44.944Z,30.26
2023-04-03T09:15:46.908Z,30.19
2023-04-03T09:17:05.831Z,30.26
2023-04-03T09:18:20.727Z,30.25
2023-04-03T09:19:47.288Z,30.21
2023-04-03T09:21:28.061Z,30.06
2023-04-03T09:22:49.700Z,30.25
2023-04-03T09:24:00.566Z,30.31
2023-04-03T09:25:22.490Z,30.23
2023-04-03T09:26:54.868Z,30.17
2023-04-03T09:27:57.641Z,30.05
2023-04-03T09:29:07.267Z,30.28
2023-04-03T09:30:22.375Z,30.12
2023-04-03T09:31:34.030Z,30.12
2023-04-03T09:32:37.850Z,30.14
2023-04-03T09:33:42.023Z,30.17
2023-04-03T09:34:45.027Z,30.24
2023-04-03T09:35:49.624Z,30.26
2023-04-03T09:36:55.479Z,30.49
2023-04-03T09:38:10.912Z,30.23
2023-04-03T09:39:21.313Z,30.34
2023-04-03T09:40:26.355Z,30.43
2023-04-03T09:41:28.272Z,30.26
2023-04-03T09:42:32.165Z,30.20
2023-04-03T09:43:39.551Z,30.38
2023-04-03T09:44:41.472Z,30.34
2023-04-03T09:45:45.008Z,30.29
2023-04-03T09:46:47.512Z,30.56
2023-04-03T09:47:49.917Z,30.59
2023-04-03T09:49:07.300Z,30.58
2023-04-03T09:50:14.135Z,30.45
2023-04-03T09:51:17.306Z,30.58
2023-04-03T09:52:27.136Z,30.56
2023-04-03T09:53:34.109Z,30.64
2023-04-03T09:54:40.578Z,30.61
2023-04-03T09:55:46.601Z,30.55
2023-04-03T09:56:54.329Z,30.55
2023-04-03T09:58:25.508Z,30.41
2023-04-03T09:59:28.010Z,30.43
2023-04-03T10:00:41.343Z,30.48
2023-04-03T10:01:58.955Z,30.56
2023-04-03T10:03:01.540Z,30.44
2023-04-03T10:04:25.520Z,30.50
2023-04-03T10:05:38.836Z,30.41
2023-04-03T10:06:53.314Z,30.44
2023-04-03T10:08:10.631Z,30.49
2023-04-03T10:09:24.858Z,30.51
2023-04-03T10:10:27.095Z,30.50
2023-04-03T10:11:28.912Z,30.55
2023-04-03T10:12:30.993Z,30.73
2023-04-03T10:13:36.258Z,30.75
2023-04-03T10:15:03.161Z,30.57
2023-04-03T10:16:13.124Z,30.54
2023-04-03T10:17:42.156Z,30.56
2023-04-03T10:19:05.726Z,30.69
2023-04-03T10:20:28.902Z,30.63
2023-04-03T10:21:54.220Z,30.51
2023-04-03T10:23:30.532Z,30.45
2023-04-03T10:25:28.205Z,30.46
2023-04-03T10:26:48.462Z,30.54
2023-04-03T10:28:01.587Z,30.71
2023-04-03T10:29:33.436Z,30.59
2023-04-03T10:30:50.585Z,30.74
2023-04-03T10:32:13.808Z,30.92
2023-04-03T10:34:17.114Z,30.61
2023-04-03T10:35:49.513Z,30.82
2023-04-03T10:37:15.159Z,30.77
2023-04-03T10:38:22.834Z,30.92
2023-04-03T10:39:52.329Z,31.09
2023-04-03T10:41:17.675Z,31.08
2023-04-03T10:42:48.383Z,31.00
2023-04-03T10:44:07.363Z,30.90
2023-04-03T10:45:43.127Z,30.97
2023-04-03T10:47:09.064Z,30.90
2023-04-03T10:48:37.350Z,30.98
2023-04-03T10:50:02.785Z,30.96
2023-04-03T10:51:47.230Z,30.91
2023-04-03T10:53:18.140Z,30.94
2023-04-03T10:54:40.713Z,31.04
2023-04-03T10:56:09.444Z,30.88
2023-04-03T10:57:13.821Z,31.01
2023-04-03T10:58:44.661Z,31.07
2023-04-03T10:59:52.521Z,31.08
2023-04-03T11:01:02.619Z,31.27
2023-04-03T11:02:27.321Z,31.15
2023-04-03T11:03:57.500Z,30.92
2023-04-03T11:05:15.447Z,30.98
2023-04-03T11:06:24.593Z,31.06
2023-04-03T11:07:37.909Z,31.18
2023-04-03T11:09:10.084Z,31.27
2023-04-03T11:10:25.820Z,31.15
2023-04-03T11:11:40.859Z,31.26
2023-04-03T11:12:53.490Z,31.33
2023-04-03T11:14:24.697Z,31.15
2023-04-03T11:15:33.568Z,31.11
2023-04-03T11:16:53.388Z,31.20
2023-04-03T11:18:11.654Z,31.33
2023-04-03T11:19:25.597Z,31.34
2023-04-03T11:20:35.022Z,31.18
2023-04-03T11:21:48.249Z,31.14
2023-04-03T11:23:02.973Z,31.27
2023-04-03T11:24:18.265Z,31.17
2023-04-03T11:25:25.119Z,31.44
2023-04-03T11:26:37.712Z,31.29
2023-04-03T11:28:08.713Z,31.39
2023-04-03T11:29:34.285Z,31.29
2023-04-03T11:31:08.944Z,31.22
2023-04-03T11:32:29.381Z,31.28
2023-04-03T11:33:50.412Z,31.14
2023-04-03T11:34:59.732Z,31.47
2023-04-03T11:36:26.306Z,31.37
2023-04-03T11:37:45.856Z,31.27
2023-04-03T11:38:54.725Z,31.14
2023-04-03T11:40:10.358Z,31.52
2023-04-03T11:41:14.868Z,31.53
2023-04-03T11:42:24.578Z,31.42
2023-04-03T11:43:31.511Z,31.45
2023-04-03T11:44:39.531Z,31.53
2023-04-03T11:45:56.205Z,31.41
2023-04-03T11:47:01.458Z,31.57
2023-04-03T11:48:24.954Z,31.46
2023-04-03T11:49:51.857Z,31.38
2023-04-03T11:50:54.213Z,31.57
2023-04-03T11:51:56.214Z,31.56
2023-04-03T11:53:31.324Z,31.67
2023-04-03T11:54:44.723Z,31.48
2023-04-03T11:55:49.900Z,31.63
2023-04-03T11:56:51.778Z,31.65
2023-04-03T11:57:59.423Z,31.74
2023-04-03T11:59:13.144Z,31.52
2023-04-03T12:00:50.481Z,31.57
2023-04-03T12:01:59.191Z,31.54
2023-04-03T12:03:02.800Z,31.54
2023-04-03T12:04:15.347Z,31.56
2023-04-03T12:05:31.523Z,31.66
2023-04-03T12:06:36.998Z,31.42
2023-04-03T12:07:39.230Z,30.74
2023-04-03T12:08:41.331Z,30.09
2023-04-03T12:09:43.457Z,29.63
2023-04-03T12:11:11.281Z,29.08
2023-04-03T12:12:35.440Z,28.71
2023-04-03T12:13:50.831Z,28.06
2023-04-03T12:14:53.447Z,28.04
2023-04-03T12:15:55.673Z,28.49
2023-04-03T12:16:59.151Z,28.85
2023-04-03T12:18:44.340Z,28.75
2023-04-03T12:19:48.040Z,28.92
2023-04-03T12:20:49.968Z,29.30
2023-04-03T12:21:59.203Z,29.41
2023-04-03T12:23:24.481Z,29.33
2023-04-03T12:24:43.311Z,29.41
2023-04-03T12:25:53.244Z,29.41
2023-04-03T12:27:01.055Z,29.52
2023-04-03T12:28:06.780Z,29.72
2023-04-03T12:29:57.186Z,29.36
2023-04-03T12:31:05.022Z,30.22
2023-04-03T12:32:44.178Z,29.78
2023-04-03T12:34:11.082Z,29.94
2023-04-03T12:35:45.576Z,29.92
2023-04-03T12:37:04.747Z,30.00
2023-04-03T12:38:40.533Z,30.25
2023-04-03T12:40:33.843Z,30.46
2023-04-03T12:41:51.467Z,30.33
2023-04-03T12:43:05.352Z,30.32
2023-04-03T12:44:28.296Z,30.27
2023-04-03T12:45:51.581Z,30.41
2023-04-03T12:46:57.180Z,30.23
2023-04-03T12:48:04.919Z,30.56
2023-04-03T12:49:25.595Z,30.61
2023-04-03T12:50:36.164Z,30.61
2023-04-03T12:51:44.497Z,30.37
2023-04-03T12:53:05.436Z,30.54
2023-04-03T12:54:24.878Z,30.33
2023-04-03T12:55:27.482Z,30.48
2023-04-03T12:56:33.725Z,30.81
2023-04-03T12:57:36.287Z,30.71
2023-04-03T12:58:38.186Z,30.66
2023-04-03T12:59:41.092Z,30.81
2023-04-03T13:00:43.181Z,30.71
2023-04-03T13:01:55.523Z,30.73
2023-04-03T13:02:58.485Z,30.61
2023-04-03T13:04:00.880Z,30.69
2023-04-03T13:05:14.753Z,30.80
2023-04-03T13:06:27.023Z,30.82
2023-04-03T13:07:38.924Z,30.88
2023-04-03T13:08:54.844Z,30.75
2023-04-03T13:10:00.675Z,30.56
2023-04-03T13:11:06.888Z,30.79
2023-04-03T13:12:16.482Z,30.90
2023-04-03T13:13:18.478Z,30.73
2023-04-03T13:14:24.617Z,30.89
2023-04-03T13:15:41.869Z,30.96
2023-04-03T13:16:57.375Z,30.97
2023-04-03T13:17:59.407Z,31.00
2023-04-03T13:19:01.225Z,30.96
2023-04-03T13:20:37.864Z,31.10
2023-04-03T13:21:40.011Z,31.22
2023-04-03T13:22:53.317Z,31.33
2023-04-03T13:24:14.148Z,31.29
2023-04-03T13:25:20.709Z,31.31
2023-04-03T13:26:27.195Z,31.31
2023-04-03T13:27:32.997Z,31.28
2023-04-03T13:28:36.669Z,31.38
2023-04-03T13:29:40.863Z,31.47
2023-04-03T13:31:19.049Z,31.31
2023-04-03T13:32:27.580Z,31.13
2023-04-03T13:33:38.692Z,30.84
2023-04-03T13:34:47.490Z,31.08
2023-04-03T13:35:59.269Z,30.87
2023-04-03T13:37:05.290Z,30.90
2023-04-03T13:38:27.007Z,30.88
2023-04-03T13:39:40.242Z,30.90
2023-04-03T13:40:58.969Z,31.00
2023-04-03T13:42:27.225Z,30.88
2023-04-03T13:43:33.619Z,31.00
2023-04-03T13:44:40.361Z,30.96
2023-04-03T13:46:08.132Z,30.93
2023-04-03T13:47:12.739Z,31.20
2023-04-03T13:48:23.563Z,31.07
2023-04-03T13:49:35.017Z,31.16
2023-04-03T13:51:01.997Z,31.05
2023-04-03T13:52:30.334Z,31.05
2023-04-03T13:53:43.218Z,31.08
2023-04-03T13:54:48.703Z,31.18
2023-04-03T13:56:10.470Z,31.15
2023-04-03T13:57:16.711Z,31.22
2023-04-03T13:58:30.816Z,31.12
2023-04-03T13:59:36.738Z,30.98
2023-04-03T14:00:56.318Z,30.98
2023-04-03T14:02:04.128Z,31.22
2023-04-03T14:03:45.832Z,31.01
2023-04-03T14:05:02.120Z,31.23
2023-04-03T14:06:08.048Z,31.20
2023-04-03T14:07:10.406Z,31.12
2023-04-03T14:08:12.327Z,31.22
2023-04-03T14:09:15.311Z,31.27
2023-04-03T14:10:17.458Z,31.20
2023-04-03T14:11:28.190Z,31.26
2023-04-03T14:12:38.262Z,31.32
2023-04-03T14:13:40.473Z,31.38
2023-04-03T14:14:43.440Z,31.25
2023-04-03T14:15:49.353Z,31.37
2023-04-03T14:17:02.335Z,31.17
2023-04-03T14:18:06.486Z,31.19
2023-04-03T14:19:26.476Z,31.40
2023-04-03T14:20:29.130Z,31.13
2023-04-03T14:21:31.008Z,31.26
2023-04-03T14:22:35.877Z,31.17
2023-04-03T14:23:37.685Z,31.12
2023-04-03T14:24:40.140Z,31.26
2023-04-03T14:25:43.097Z,31.29